METAR Data
IDs: Format: Raw Decoded Include TAF

Data at: 0341 UTC 21 Sep 2018

Region: TOP
KATL 210252Z 13006KT 10SM CLR 27/16 A3013 RMK AO2 SLP192 T02670161 53016

KBOS 210254Z 12010KT 10SM FEW050 BKN140 OVC180 17/12 A3029 RMK AO2 SLP257 T01720117 50002

KBWI 210254Z 13004KT 10SM OVC020 22/18 A3023 RMK AO2 SLP234 T02170183 51016

KCLE 210251Z 18013KT 10SM SCT250 27/21 A3001 RMK AO2 SLP155 T02720211 58004

KCLT 210252Z 17006KT 10SM CLR 26/21 A3017 RMK AO2 SLP207 T02560206 51014

KCVG 210252Z 19009KT 10SM CLR 27/21 A3002 RMK AO2 SLP151 T02670211 58001

KDCA 210252Z 16010KT 10SM OVC040 23/19 A3022 RMK AO2 SLP233 T02330189 51015

KDEN 210253Z 04013KT 10SM FEW120 FEW220 17/M01 A3009 RMK AO2 SLP128 T01671006 53045

KDFW 210253Z 14007KT 10SM FEW050 SCT120 BKN250 24/21 A2993 RMK AO2 SLP127 60003 T02390211 51015

KDTW 210253Z 12004KT 7SM FEW020 SCT060 BKN200 23/20 A2993 RMK AO2 SLP130 T02280200 58012

KEWR 210336Z 15006KT 10SM BKN024 BKN035 OVC055 20/16 A3026 RMK AO2 T02000156 $

KFLL 210253Z 07009KT 10SM SCT024 29/26 A3004 RMK AO2 SLP173 T02890256 53012

KIAD 210252Z 16008KT 10SM FEW019 BKN030 OVC044 22/21 A3021 RMK AO2 SLP226 T02220206 50013

KIAH 210253Z 15003KT 10SM FEW025 SCT190 BKN250 26/26 A2996 RMK AO2 SLP144 T02560256 53016

KJFK 210251Z 13009KT 10SM SCT022 BKN028 OVC055 19/17 A3027 RMK AO2 SLP248 T01940167 50002

KLAS 210256Z 04005KT 10SM CLR 32/M04 A2988 RMK AO2 SLP092 T03221039 53009

KLAX 210253Z 26007KT 10SM BKN010 20/17 A2989 RMK AO2 SLP120 T02000167 53017

KLGA 210251Z 14009KT 10SM BKN036 OVC055 21/15 A3025 RMK AO2 SLP242 T02060150 51006 $

KMCO 210253Z 09004KT 10SM FEW030 FEW250 27/24 A3009 RMK AO2 SLP188 T02670244 53015

KMDW 210253Z 20016G26KT 10SM CLR 31/19 A2981 RMK AO2 PK WND 20026/0220 SLP083 T03060189 53003

KMEM 210254Z 18008KT 10SM CLR 28/22 A2998 RMK AO2 SLP146 T02830217 51010

KMIA 210253Z 09005KT 10SM FEW024 28/24 A3005 RMK AO2 SLP176 T02830244 53014

KMSP 210330Z 23013G18KT 10SM BKN011 OVC027 19/19 A2956 RMK AO2 T01940189

KORD 210251Z 20014G25KT 10SM CLR 31/19 A2980 RMK AO2 SLP085 T03060189 53003

KPDX 210253Z 07004KT 10SM FEW250 19/11 A3009 RMK AO2 SLP189 T01940106 55003

KPHL 210254Z 11005KT 10SM OVC034 19/16 A3026 RMK AO2 SLP245 T01890156 51009 $

KPHX 210251Z 17004KT 10SM CLR 33/16 A2979 RMK AO2 SLP069 T03280161 53015

KPIT 210251Z 17005KT 10SM CLR 23/20 A3008 RMK AO2 SLP185 T02280200 58003

KSAN 210251Z 19004KT 10SM FEW015 20/15 A2991 RMK AO2 SLP129 T02000150 53013

KSEA 210253Z 19005KT 10SM OVC043 17/09 A3010 RMK AO2 SLP198 T01720094 56003

KSFO 210256Z 31008KT 10SM CLR 19/07 A2982 RMK AO2 SLP099 T01940072 53005

KSLC 210254Z 13005KT 10SM CLR 18/M08 A3014 RMK AO2 SLP172 T01781083 53009

KSTL 210251Z 18010KT 10SM CLR 30/20 A2991 RMK AO2 SLP112 T03000200 53005

KTPA 210253Z 11003KT 10SM -RA FEW080 SCT100 BKN120 26/23 A3007 RMK AO2 TSE0157 SLP182 CB W MOV SW P0026 60057 T02560233 50010